createdAt,value
2022-09-02T00:01:31.456Z,99783.69
2022-09-02T00:04:05.480Z,99775.31
2022-09-02T00:06:33.559Z,99775.34
2022-09-02T00:09:01.434Z,99775.50
2022-09-02T00:11:34.386Z,99769.53
2022-09-02T00:14:05.330Z,99772.22
2022-09-02T00:16:33.454Z,99771.47
2022-09-02T00:19:02.616Z,99762.13
2022-09-02T00:21:32.945Z,99765.59
2022-09-02T00:24:00.597Z,99768.25
2022-09-02T00:26:27.453Z,99759.88
2022-09-02T00:28:56.221Z,99755.53
2022-09-02T00:31:25.970Z,99756.59
2022-09-02T00:33:53.439Z,99749.00
2022-09-02T00:36:20.715Z,99759.41
2022-09-02T00:38:47.821Z,99761.38
2022-09-02T00:41:15.000Z,99755.44
2022-09-02T00:43:44.144Z,99748.63
2022-09-02T00:46:13.988Z,99755.53
2022-09-02T00:48:49.670Z,99759.00
2022-09-02T00:51:17.139Z,99754.03
2022-09-02T00:53:47.214Z,99754.03
2022-09-02T00:56:26.953Z,99755.94
2022-09-02T00:58:55.996Z,99745.72
2022-09-02T01:01:23.532Z,99751.78
2022-09-02T01:03:51.730Z,99738.22
2022-09-02T01:06:27.494Z,99752.81
2022-09-02T01:09:08.361Z,99745.22
2022-09-02T01:11:47.963Z,99743.59
2022-09-02T01:14:16.677Z,99740.31
2022-09-02T01:16:53.129Z,99743.78
2022-09-02T01:19:41.999Z,99749.91
2022-09-02T01:22:22.548Z,99743.19
2022-09-02T01:24:49.738Z,99747.53
2022-09-02T01:27:20.429Z,99749.38
2022-09-02T01:29:57.692Z,99739.28
2022-09-02T01:32:26.726Z,99735.94
2022-09-02T01:34:53.742Z,99733.50
2022-09-02T01:37:21.428Z,99740.41
2022-09-02T01:39:49.326Z,99735.41
2022-09-02T01:42:16.719Z,99732.91
2022-09-02T01:44:46.105Z,99731.31
2022-09-02T01:47:24.330Z,99731.44
2022-09-02T01:49:52.536Z,99733.28
2022-09-02T01:52:22.778Z,99726.50
2022-09-02T01:54:49.951Z,99729.97
2022-09-02T01:57:17.199Z,99732.66
2022-09-02T01:59:46.056Z,99732.72
2022-09-02T02:02:14.074Z,99728.53
2022-09-02T02:04:41.490Z,99727.75
2022-09-02T02:07:08.235Z,99738.97
2022-09-02T02:09:35.218Z,99724.44
2022-09-02T02:12:02.138Z,99733.03
2022-09-02T02:14:30.440Z,99736.47
2022-09-02T02:16:57.328Z,99730.47
2022-09-02T02:19:24.280Z,99739.19
2022-09-02T02:21:51.062Z,99734.06
2022-09-02T02:24:17.856Z,99738.41
2022-09-02T02:26:45.153Z,99740.16
2022-09-02T02:29:13.366Z,99733.41
2022-09-02T02:31:40.865Z,99737.72
2022-09-02T02:34:07.744Z,99731.84
2022-09-02T02:36:35.386Z,99737.81
2022-09-02T02:39:02.617Z,99732.81
2022-09-02T02:41:33.586Z,99733.69
2022-09-02T02:44:00.497Z,99732.06
2022-09-02T02:46:31.052Z,99731.47
2022-09-02T02:49:01.520Z,99733.28
2022-09-02T02:51:28.678Z,99732.50
2022-09-02T02:53:58.687Z,99734.22
2022-09-02T02:56:25.976Z,99730.81
2022-09-02T02:58:52.754Z,99724.84
2022-09-02T03:01:19.587Z,99730.75
2022-09-02T03:03:46.449Z,99723.03
2022-09-02T03:06:13.340Z,99722.13
2022-09-02T03:08:40.176Z,99727.28
2022-09-02T03:11:07.075Z,99726.47
2022-09-02T03:13:35.595Z,99722.34
2022-09-02T03:16:06.270Z,99724.06
2022-09-02T03:18:34.954Z,99725.84
2022-09-02T03:21:02.251Z,99724.19
2022-09-02T03:23:29.025Z,99728.50
2022-09-02T03:25:55.851Z,99719.16
2022-09-02T03:28:22.628Z,99725.06
2022-09-02T03:30:49.454Z,99723.34
2022-09-02T03:33:16.661Z,99714.03
2022-09-02T03:35:45.678Z,99718.31
2022-09-02T03:38:13.309Z,99717.41
2022-09-02T03:40:41.603Z,99716.63
2022-09-02T03:43:08.563Z,99716.63
2022-09-02T03:45:35.396Z,99717.53
2022-09-02T03:48:02.636Z,99717.47
2022-09-02T03:50:37.734Z,99715.00
2022-09-02T03:53:04.930Z,99714.19
2022-09-02T03:55:32.201Z,99717.63
2022-09-02T03:57:59.508Z,99713.38
2022-09-02T04:00:29.861Z,99709.09
2022-09-02T04:02:56.747Z,99701.47
2022-09-02T04:05:24.665Z,99706.59
2022-09-02T04:07:52.601Z,99706.69
2022-09-02T04:10:21.825Z,99704.13
2022-09-02T04:12:50.064Z,99704.19
2022-09-02T04:15:19.325Z,99699.19
2022-09-02T04:17:46.447Z,99701.81
2022-09-02T04:20:14.209Z,99705.94
2022-09-02T04:22:41.566Z,99699.28
2022-09-02T04:25:09.609Z,99700.22
2022-09-02T04:27:36.944Z,99696.81
2022-09-02T04:30:05.302Z,99697.72
2022-09-02T04:32:35.830Z,99693.53
2022-09-02T04:35:07.004Z,99688.34
2022-09-02T04:37:33.936Z,99683.38
2022-09-02T04:40:01.685Z,99687.63
2022-09-02T04:42:28.468Z,99690.13
2022-09-02T04:44:56.527Z,99685.88
2022-09-02T04:47:24.097Z,99691.00
2022-09-02T04:49:51.765Z,99699.59
2022-09-02T04:52:20.504Z,99692.75
2022-09-02T04:54:47.945Z,99694.47
2022-09-02T04:57:14.883Z,99697.97
2022-09-02T04:59:41.948Z,99691.22
2022-09-02T05:02:09.205Z,99693.78
2022-09-02T05:04:37.728Z,99692.97
2022-09-02T05:07:04.601Z,99697.31
2022-09-02T05:09:32.260Z,99699.09
2022-09-02T05:12:03.477Z,99688.00
2022-09-02T05:14:31.577Z,99695.69
2022-09-02T05:17:03.855Z,99697.41
2022-09-02T05:19:34.218Z,99686.47
2022-09-02T05:22:01.876Z,99696.66
2022-09-02T05:24:29.536Z,99691.44
2022-09-02T05:26:56.546Z,99690.59
2022-09-02T05:29:23.816Z,99687.13
2022-09-02T05:31:50.883Z,99690.47
2022-09-02T05:34:18.541Z,99692.03
2022-09-02T05:36:46.482Z,99693.66
2022-09-02T05:39:14.048Z,99688.28
2022-09-02T05:41:42.278Z,99696.66
2022-09-02T05:44:09.374Z,99690.50
2022-09-02T05:46:36.904Z,99691.19
2022-09-02T05:49:17.590Z,99697.88
2022-09-02T05:52:00.204Z,99689.31
2022-09-02T05:54:33.172Z,99692.50
2022-09-02T05:57:04.799Z,99686.44
2022-09-02T05:59:36.818Z,99695.63
2022-09-02T06:02:03.859Z,99690.47
2022-09-02T06:04:32.153Z,99686.06
2022-09-02T06:06:59.020Z,99681.75
2022-09-02T06:09:25.931Z,99689.16
2022-09-02T06:11:52.807Z,99688.94
2022-09-02T06:14:29.850Z,99688.56
2022-09-02T06:16:59.024Z,99695.03
2022-09-02T06:19:47.422Z,99690.13
2022-09-02T06:22:19.088Z,99692.00
2022-09-02T06:24:48.335Z,99685.13
2022-09-02T06:27:17.284Z,99686.72
2022-09-02T06:29:44.434Z,99673.75
2022-09-02T06:32:27.280Z,99671.94
2022-09-02T06:35:09.708Z,99684.72
2022-09-02T06:37:47.850Z,99682.94
2022-09-02T06:40:18.868Z,99679.06
2022-09-02T06:42:46.040Z,99690.72
2022-09-02T06:45:13.173Z,99682.63
2022-09-02T06:47:42.461Z,99691.41
2022-09-02T06:50:11.566Z,99681.88
2022-09-02T06:52:40.933Z,99681.38
2022-09-02T06:55:14.963Z,99680.00
2022-09-02T06:57:45.865Z,99677.63
2022-09-02T07:00:19.596Z,99670.22
2022-09-02T07:03:06.431Z,99666.78
2022-09-02T07:05:41.794Z,99667.41
2022-09-02T07:08:19.058Z,99672.03
2022-09-02T07:10:46.242Z,99664.56
2022-09-02T07:13:14.361Z,99670.19
2022-09-02T07:15:42.912Z,99666.25
2022-09-02T07:18:09.892Z,99650.47
2022-09-02T07:20:37.092Z,99648.84
2022-09-02T07:23:06.134Z,99659.25
2022-09-02T07:25:34.701Z,99665.97
2022-09-02T07:28:05.048Z,99653.34
2022-09-02T07:30:40.104Z,99655.41
2022-09-02T07:33:07.293Z,99658.75
2022-09-02T07:35:38.404Z,99649.03
2022-09-02T07:38:06.745Z,99648.53
2022-09-02T07:40:36.451Z,99646.44
2022-09-02T07:43:07.796Z,99652.66
2022-09-02T07:45:41.162Z,99644.66
2022-09-02T07:48:09.406Z,99645.72
2022-09-02T07:50:39.011Z,99647.19
2022-09-02T07:53:07.596Z,99651.75
2022-09-02T07:55:37.272Z,99643.38
2022-09-02T08:01:01.110Z,99651.47
2022-09-02T08:03:30.910Z,99643.94
2022-09-02T08:05:59.454Z,99642.00
2022-09-02T08:08:32.222Z,99640.72
2022-09-02T08:11:03.169Z,99642.88
2022-09-02T08:13:34.833Z,99641.56
2022-09-02T08:16:07.660Z,99641.56
2022-09-02T08:18:46.147Z,99651.09
2022-09-02T08:21:16.366Z,99644.59
2022-09-02T08:23:45.673Z,99647.06
2022-09-02T08:26:19.094Z,99646.81
2022-09-02T08:28:46.181Z,99641.56
2022-09-02T08:31:15.080Z,99635.28
2022-09-02T08:33:46.681Z,99634.00
2022-09-02T08:36:20.288Z,99637.97
2022-09-02T08:38:47.542Z,99641.66
2022-09-02T08:45:39.703Z,99640.06
2022-09-02T08:49:27.504Z,99645.66
2022-09-02T08:52:01.703Z,99636.72
2022-09-02T08:54:53.055Z,99626.78
2022-09-02T08:57:20.292Z,99633.59
2022-09-02T08:59:53.449Z,99635.50
2022-09-02T09:03:18.797Z,99620.94
2022-09-02T09:06:19.261Z,99622.38
2022-09-02T09:09:37.326Z,99630.97
2022-09-02T09:12:35.723Z,99623.06
2022-09-02T09:15:21.198Z,99612.94
2022-09-02T09:18:09.499Z,99608.16
2022-09-02T09:20:44.575Z,99615.81
2022-09-02T09:23:40.324Z,99609.63
2022-09-02T09:26:12.881Z,99605.38
2022-09-02T09:28:46.053Z,99603.06
2022-09-02T09:31:22.154Z,99598.53
2022-09-02T09:34:09.497Z,99589.69
2022-09-02T09:36:52.011Z,99596.72
2022-09-02T09:39:35.649Z,99594.00
2022-09-02T09:42:16.226Z,99590.25
2022-09-02T09:44:54.057Z,99582.25
2022-09-02T09:47:25.919Z,99582.38
2022-09-02T09:50:22.310Z,99578.88
2022-09-02T09:52:49.306Z,99578.09
2022-09-02T09:55:24.899Z,99579.50
2022-09-02T09:57:54.111Z,99572.63
2022-09-02T10:00:32.095Z,99567.34
2022-09-02T10:03:06.799Z,99563.56
2022-09-02T10:05:39.120Z,99569.03
2022-09-02T10:08:33.918Z,99562.81
2022-09-02T10:11:05.457Z,99569.16
2022-09-02T10:13:36.823Z,99564.03
2022-09-02T10:16:34.019Z,99563.41
2022-09-02T10:19:48.605Z,99565.03
2022-09-02T10:22:37.646Z,99568.19
2022-09-02T10:25:34.883Z,99555.91
2022-09-02T10:28:29.820Z,99555.69
2022-09-02T10:31:08.815Z,99563.06
2022-09-02T10:34:33.684Z,99554.28
2022-09-02T10:37:25.610Z,99539.78
2022-09-02T10:40:29.813Z,99543.28
2022-09-02T10:43:05.333Z,99536.13
2022-09-02T10:45:46.829Z,99525.06
2022-09-02T10:49:26.228Z,99530.22
2022-09-02T10:52:27.392Z,99520.16
2022-09-02T10:55:42.812Z,99518.34
2022-09-02T10:58:39.803Z,99524.59
2022-09-02T11:01:21.881Z,99518.72
2022-09-02T11:04:08.027Z,99511.94
2022-09-02T11:07:02.110Z,99501.41
2022-09-02T11:09:51.228Z,99516.78
2022-09-02T11:12:33.372Z,99500.31
2022-09-02T11:15:22.078Z,99498.84
2022-09-02T11:18:55.730Z,99508.91
2022-09-02T11:21:57.068Z,99496.38
2022-09-02T11:24:51.001Z,99492.09
2022-09-02T11:27:44.301Z,99482.44
2022-09-02T11:30:29.469Z,99473.47
2022-09-02T11:33:44.079Z,99495.53
2022-09-02T11:36:23.208Z,99465.63
2022-09-02T11:39:30.502Z,99474.78
2022-09-02T11:42:45.810Z,99468.81
2022-09-02T11:45:59.267Z,99470.16
2022-09-02T11:49:11.333Z,99479.88
2022-09-02T11:52:35.877Z,99464.91
2022-09-02T11:55:25.792Z,99474.72
2022-09-02T11:57:58.784Z,99460.75
2022-09-02T12:00:58.731Z,99467.91
2022-09-02T12:03:52.102Z,99460.28
2022-09-02T12:06:28.939Z,99465.66
2022-09-02T12:09:04.650Z,99455.69
2022-09-02T12:11:41.802Z,99454.53
2022-09-02T12:14:32.739Z,99435.38
2022-09-02T12:18:08.896Z,99450.75
2022-09-02T12:20:49.246Z,99442.50
2022-09-02T12:23:54.832Z,99459.38
2022-09-02T12:26:45.062Z,99452.50
2022-09-02T12:29:20.689Z,99446.44
2022-09-02T12:31:50.543Z,99435.09
2022-09-02T12:34:20.576Z,99434.91
2022-09-02T12:36:52.161Z,99437.09
2022-09-02T12:39:25.574Z,99427.53
2022-09-02T12:42:11.852Z,99431.13
2022-09-02T12:45:12.293Z,99429.19
2022-09-02T12:48:06.690Z,99436.81
2022-09-02T12:50:54.773Z,99433.38
2022-09-02T12:53:33.047Z,99433.00
2022-09-02T12:56:21.092Z,99420.66
2022-09-02T12:58:54.790Z,99423.88
2022-09-02T13:01:54.657Z,99423.88
2022-09-02T13:05:01.087Z,99423.66
2022-09-02T13:08:17.681Z,99422.88
2022-09-02T13:11:28.263Z,99409.41
2022-09-02T13:14:33.440Z,99415.81
2022-09-02T13:17:36.540Z,99406.44
2022-09-02T13:20:10.098Z,99412.75
2022-09-02T13:23:09.015Z,99407.16
2022-09-02T13:26:49.721Z,99424.38
2022-09-02T13:29:53.448Z,99404.13
2022-09-02T13:32:20.319Z,99397.25
2022-09-02T13:34:50.948Z,99397.00
2022-09-02T13:37:38.632Z,99385.06
2022-09-02T13:40:14.368Z,99387.16
2022-09-02T13:42:50.718Z,99373.19
2022-09-02T13:45:24.215Z,99374.84
2022-09-02T13:47:58.631Z,99371.66
2022-09-02T13:50:30.053Z,99368.59
2022-09-02T13:55:57.727Z,99368.25
2022-09-02T13:58:35.259Z,99359.63
2022-09-02T14:01:27.070Z,99368.59
2022-09-02T14:03:58.329Z,99361.91
2022-09-02T14:06:36.651Z,99353.34
2022-09-02T14:09:08.649Z,99347.44
2022-09-02T14:11:48.166Z,99354.44
2022-09-02T14:14:18.728Z,99347.56
2022-09-02T14:16:45.743Z,99341.50
2022-09-02T14:19:25.271Z,99345.78
2022-09-02T14:21:56.589Z,99348.16
2022-09-02T14:24:27.541Z,99344.00
2022-09-02T14:26:59.901Z,99343.19
2022-09-02T14:29:31.941Z,99339.50
2022-09-02T14:32:28.692Z,99333.59
2022-09-02T14:35:22.434Z,99327.56
2022-09-02T14:37:57.680Z,99328.47
2022-09-02T14:40:43.264Z,99332.63
2022-09-02T14:43:16.621Z,99326.00
2022-09-02T14:45:50.341Z,99325.41
2022-09-02T14:48:23.754Z,99326.59
2022-09-02T14:51:02.677Z,99330.41
2022-09-02T14:53:30.133Z,99326.38
2022-09-02T14:55:58.066Z,99328.06
2022-09-02T14:58:27.747Z,99322.59
2022-09-02T15:01:02.358Z,99316.44
2022-09-02T15:03:31.687Z,99321.78
2022-09-02T15:05:58.552Z,99314.44
2022-09-02T15:08:25.794Z,99313.25
2022-09-02T15:10:54.701Z,99309.22
2022-09-02T15:13:33.682Z,99311.50
2022-09-02T15:16:02.772Z,99306.66
2022-09-02T15:18:30.059Z,99307.72
2022-09-02T15:20:57.526Z,99306.16
2022-09-02T15:23:24.869Z,99315.84
2022-09-02T15:25:54.073Z,99315.03
2022-09-02T15:28:21.220Z,99305.56
2022-09-02T15:30:48.104Z,99309.69
2022-09-02T15:33:19.834Z,99311.47
2022-09-02T15:35:47.513Z,99306.16
2022-09-02T15:38:14.557Z,99297.63
2022-09-02T15:40:41.423Z,99301.28
2022-09-02T15:43:08.268Z,99307.69
2022-09-02T15:45:35.602Z,99304.47
2022-09-02T15:48:02.606Z,99305.66
2022-09-02T15:50:33.966Z,99307.59
2022-09-02T15:53:01.220Z,99301.19
2022-09-02T15:55:31.331Z,99304.72
2022-09-02T15:57:58.143Z,99304.97
2022-09-02T16:00:27.608Z,99301.75
2022-09-02T16:02:56.912Z,99292.41
2022-09-02T16:05:24.127Z,99292.53
2022-09-02T16:07:55.007Z,99303.66
2022-09-02T16:10:22.139Z,99290.66
2022-09-02T16:12:49.164Z,99290.75
2022-09-02T16:15:16.070Z,99295.94
2022-09-02T16:17:42.870Z,99287.34
2022-09-02T16:20:10.207Z,99287.47
2022-09-02T16:22:37.358Z,99290.19
2022-09-02T16:25:04.752Z,99286.16
2022-09-02T16:27:50.244Z,99283.56
2022-09-02T16:30:17.423Z,99280.34
2022-09-02T16:32:44.470Z,99276.09
2022-09-02T16:35:11.232Z,99269.34
2022-09-02T16:37:38.080Z,99263.41
2022-09-02T16:40:06.191Z,99262.94
2022-09-02T16:42:37.454Z,99277.00
2022-09-02T16:45:05.650Z,99264.34
2022-09-02T16:47:32.393Z,99279.34
2022-09-02T16:49:59.149Z,99266.69
2022-09-02T16:52:25.901Z,99263.38
2022-09-02T16:54:52.675Z,99265.28
2022-09-02T16:57:19.410Z,99264.66
2022-09-02T16:59:46.246Z,99270.09
2022-09-02T17:02:13.064Z,99262.75
2022-09-02T17:04:39.821Z,99263.31
2022-09-02T17:07:06.716Z,99266.38
2022-09-02T17:09:33.456Z,99260.00
2022-09-02T17:12:00.215Z,99257.91
2022-09-02T17:14:27.143Z,99263.44
2022-09-02T17:16:53.993Z,99264.84
2022-09-02T17:19:22.324Z,99260.19
2022-09-02T17:21:54.697Z,99247.78
2022-09-02T17:24:27.727Z,99254.84
2022-09-02T17:26:55.831Z,99254.44
2022-09-02T17:32:17.947Z,99259.00
2022-09-02T17:34:44.894Z,99265.34
2022-09-02T17:37:11.667Z,99273.41
2022-09-02T17:39:38.551Z,99262.44
2022-09-02T17:42:06.562Z,99259.34
2022-09-02T17:44:38.300Z,99260.47
2022-09-02T17:47:11.282Z,99261.50
2022-09-02T17:49:43.963Z,99260.19
2022-09-02T17:52:15.443Z,99266.53
2022-09-02T17:54:43.271Z,99264.59
2022-09-02T17:57:50.544Z,99264.28
2022-09-02T18:00:22.386Z,99262.13
2022-09-02T18:03:31.728Z,99257.56
2022-09-02T18:06:28.158Z,99261.56
2022-09-02T18:09:02.366Z,99253.16
2022-09-02T18:11:30.453Z,99254.44
2022-09-02T18:14:40.665Z,99257.75
2022-09-02T18:17:36.949Z,99260.06
2022-09-02T18:20:10.509Z,99259.53
2022-09-02T18:23:09.066Z,99277.03
2022-09-02T18:25:57.229Z,99266.66
2022-09-02T18:28:40.767Z,99268.59
2022-09-02T18:31:24.718Z,99270.03
2022-09-02T18:34:17.687Z,99266.28
2022-09-02T18:37:13.610Z,99273.63
2022-09-02T18:40:09.574Z,99273.31
2022-09-02T18:43:03.223Z,99267.69
2022-09-02T18:45:48.208Z,99271.69
2022-09-02T18:48:32.452Z,99274.56
2022-09-02T18:51:12.915Z,99279.94
2022-09-02T18:54:09.138Z,99275.25
2022-09-02T18:56:37.145Z,99274.53
2022-09-02T18:59:15.261Z,99281.78
2022-09-02T19:01:54.733Z,99284.59
2022-09-02T19:04:29.455Z,99284.16
2022-09-02T19:07:17.325Z,99287.88
2022-09-02T19:09:44.301Z,99290.84
2022-09-02T19:12:11.649Z,99307.38
2022-09-02T19:14:40.955Z,99300.84
2022-09-02T19:17:09.318Z,99297.69
2022-09-02T19:19:36.122Z,99303.25
2022-09-02T19:22:10.340Z,99312.94
2022-09-02T19:24:45.279Z,99300.50
2022-09-02T19:27:23.619Z,99295.69
2022-09-02T19:29:59.638Z,99301.97
2022-09-02T19:32:33.176Z,99296.25
2022-09-02T19:35:05.684Z,99298.97
2022-09-02T19:37:32.492Z,99300.94
2022-09-02T19:40:07.108Z,99298.44
2022-09-02T19:42:33.883Z,99290.13
2022-09-02T19:45:00.812Z,99293.78
2022-09-02T19:50:14.875Z,99300.38
2022-09-02T19:52:45.742Z,99295.34
2022-09-02T19:55:16.703Z,99298.22
2022-09-02T19:57:45.012Z,99294.41
2022-09-02T20:00:14.048Z,99289.63
2022-09-02T20:02:41.100Z,99296.72
2022-09-02T20:05:13.602Z,99283.34
2022-09-02T20:07:41.060Z,99285.25
2022-09-02T20:10:09.219Z,99289.03
2022-09-02T20:12:36.611Z,99288.44
2022-09-02T20:15:06.695Z,99291.09
2022-09-02T20:17:33.673Z,99289.59
2022-09-02T20:20:19.310Z,99284.81
2022-09-02T20:22:55.186Z,99290.22
2022-09-02T20:25:38.812Z,99288.84
2022-09-02T20:28:45.648Z,99279.84
2022-09-02T20:31:50.085Z,99290.59
2022-09-02T20:34:35.706Z,99294.19
2022-09-02T20:37:56.553Z,99277.22
2022-09-02T20:40:36.698Z,99287.63
2022-09-02T20:43:41.233Z,99289.44
2022-09-02T20:46:53.422Z,99287.38
2022-09-02T20:50:04.520Z,99279.06
2022-09-02T20:52:55.638Z,99284.53
2022-09-02T20:55:33.006Z,99282.97
2022-09-02T20:58:33.037Z,99274.63
2022-09-02T21:01:10.744Z,99277.31
2022-09-02T21:03:51.730Z,99277.38
2022-09-02T21:06:24.014Z,99275.72
2022-09-02T21:09:06.958Z,99279.13
2022-09-02T21:11:47.965Z,99277.31
2022-09-02T21:14:25.123Z,99278.03
2022-09-02T21:17:04.701Z,99271.16
2022-09-02T21:19:36.418Z,99277.03
2022-09-02T21:22:33.762Z,99273.63
2022-09-02T21:25:11.913Z,99277.91
2022-09-02T21:28:03.130Z,99275.31
2022-09-02T21:30:40.678Z,99274.47
2022-09-02T21:33:13.070Z,99273.63
2022-09-02T21:35:45.690Z,99261.66
2022-09-02T21:38:41.028Z,99267.13
2022-09-02T21:41:27.069Z,99269.97
2022-09-02T21:44:22.561Z,99266.97
2022-09-02T21:47:03.895Z,99271.56
2022-09-02T21:50:18.703Z,99276.47
2022-09-02T21:53:00.570Z,99265.66
2022-09-02T21:56:16.746Z,99269.53
2022-09-02T21:58:57.288Z,99276.00
2022-09-02T22:01:44.787Z,99273.81
2022-09-02T22:04:45.378Z,99262.16
2022-09-02T22:07:31.171Z,99258.28
2022-09-02T22:10:36.381Z,99261.34
2022-09-02T22:13:05.353Z,99260.69
2022-09-02T22:16:14.813Z,99253.41
2022-09-02T22:19:00.608Z,99259.03
2022-09-02T22:22:01.281Z,99256.91
2022-09-02T22:24:31.035Z,99257.16
2022-09-02T22:27:09.019Z,99249.66
2022-09-02T22:30:06.961Z,99256.09
2022-09-02T22:32:40.412Z,99249.47
2022-09-02T22:35:55.606Z,99251.75
2022-09-02T22:38:36.078Z,99244.25
2022-09-02T22:41:42.149Z,99251.44
2022-09-02T22:44:55.515Z,99250.00
2022-09-02T22:47:43.152Z,99248.53
2022-09-02T22:50:39.057Z,99242.78
2022-09-02T22:53:05.843Z,99251.56
2022-09-02T22:55:58.817Z,99244.81
2022-09-02T22:59:02.912Z,99245.06
2022-09-02T23:02:08.981Z,99240.28
2022-09-02T23:05:36.855Z,99242.38
2022-09-02T23:08:07.208Z,99246.00
2022-09-02T23:10:57.042Z,99234.09
2022-09-02T23:13:57.045Z,99239.44
2022-09-02T23:17:04.970Z,99242.28
2022-09-02T23:20:02.738Z,99241.63
2022-09-02T23:23:06.931Z,99241.88
2022-09-02T23:25:47.495Z,99238.41
2022-09-02T23:28:40.865Z,99235.16
2022-09-02T23:31:30.448Z,99235.28
2022-09-02T23:34:28.389Z,99229.31
2022-09-02T23:37:16.856Z,99238.69
2022-09-02T23:40:26.130Z,99230.28
2022-09-02T23:42:54.180Z,99226.03
2022-09-02T23:45:30.394Z,99226.97
2022-09-02T23:48:44.049Z,99222.00
2022-09-02T23:51:29.622Z,99230.69
2022-09-02T23:54:12.265Z,99230.78
2022-09-02T23:57:20.379Z,99220.50
